Desbiens, Canada
Current Conditions -  °F | °C
As of 10:00 AM on Friday 19 Dec 2014 (Local Time) from CYRJ Reporting Station
Few Clouds Few Clouds  
Wind Chill:   Ceiling: Unl
Heat Index: 16°   Visibility: 40mi
Dew Point:   Wind: 10mph
Humidity: 58%   Direction: 310°NW
Pressure: 30.08"   Gusts: NA
Location:  48.42°N, 71.95°W
Report Text: CYRJ 191500Z 31009KT 40SM FEW100 M09/M16 A3008 RMK AC1 AC TR SLP199
Loading
Personal Weather Stations






























Interactive Weather Map New forecast layout! Learn more

10-Day Weather Forecast

Advertisements
Track Severe Weather on mobile